Time;durP1;ratioP1;P1;durP2;ratioP2;P2;SDS_P1;SDS_P2;PMS_P1;PMS_P2;Temp;Humidity;BMP_temperature;BMP_pressure;BME280_temperature;BME280_humidity;BME280_pressure;Samples;Min_cycle;Max_cycle;Signal;HPM_P1;HPM_P2
2023/04/27 00:01:14;;;;;;;0.00;0.00;;;14.40;99.90;;;;;;4977312;28;20019;-90
2023/04/27 00:03:40;;;;;;;0.28;0.20;;;14.50;99.90;;;;;;4975602;28;20073;-92
2023/04/27 00:06:07;;;;;;;0.10;0.10;;;14.30;99.90;;;;;;4976546;28;20049;-91
2023/04/27 00:08:33;;;;;;;0.10;0.10;;;14.30;99.90;;;;;;4977046;28;20058;-91
2023/04/27 00:10:59;;;;;;;0.03;0.03;;;14.30;99.90;;;;;;4977035;28;20051;-91
2023/04/27 00:13:25;;;;;;;0.10;0.10;;;14.30;99.90;;;;;;4977345;28;20031;-90
2023/04/27 00:15:51;;;;;;;0.20;0.20;;;14.40;99.90;;;;;;4977227;28;20022;-92
2023/04/27 00:18:17;;;;;;;0.10;0.10;;;14.40;99.90;;;;;;4975445;28;20507;-90
2023/04/27 00:20:43;;;;;;;0.10;0.10;;;14.40;99.90;;;;;;4975890;28;20027;-92
2023/04/27 00:23:09;;;;;;;0.28;0.28;;;14.30;99.90;;;;;;4975779;28;20039;-91
2023/04/27 00:25:35;;;;;;;0.00;0.00;;;14.30;99.90;;;;;;4976024;28;20026;-90
2023/04/27 00:28:00;;;;;;;0.10;0.10;;;14.40;99.90;;;;;;4975737;28;20038;-90
2023/04/27 00:30:26;;;;;;;0.10;0.10;;;14.30;99.90;;;;;;4976589;28;20046;-90
2023/04/27 00:32:52;;;;;;;0.73;0.20;;;14.20;99.90;;;;;;4975383;28;20499;-90
2023/04/27 00:35:17;;;;;;;0.15;0.15;;;14.20;99.90;;;;;;4975415;28;20057;-90
2023/04/27 00:37:43;;;;;;;0.10;0.10;;;14.10;99.90;;;;;;4975522;28;20406;-90
2023/04/27 00:40:09;;;;;;;0.20;0.20;;;14.10;99.90;;;;;;4975305;28;20403;-90
2023/04/27 00:42:35;;;;;;;0.30;0.30;;;13.70;99.90;;;;;;4976684;28;20395;-90
2023/04/27 00:45:01;;;;;;;0.10;0.10;;;13.80;99.90;;;;;;4975409;28;20031;-90
2023/04/27 00:47:28;;;;;;;0.05;0.05;;;13.70;99.90;;;;;;4989308;28;20081;-89
2023/04/27 00:49:55;;;;;;;0.10;0.10;;;13.80;99.90;;;;;;4994715;28;20022;-90
2023/04/27 00:52:20;;;;;;;0.40;0.40;;;13.90;99.90;;;;;;4995700;28;20432;-90
2023/04/27 00:54:49;;;;;;;0.10;0.10;;;13.80;99.90;;;;;;4995773;28;20069;-90
2023/04/27 00:57:15;;;;;;;0.10;0.10;;;13.90;99.90;;;;;;4994580;28;20502;-90
2023/04/27 00:59:41;;;;;;;0.22;0.22;;;13.90;99.90;;;;;;4995660;28;20045;-90
2023/04/27 01:02:08;;;;;;;0.15;0.15;;;13.80;99.90;;;;;;4993985;28;20106;-91
2023/04/27 01:04:35;;;;;;;0.10;0.10;;;13.90;99.90;;;;;;4994813;28;20026;-90
2023/04/27 01:07:01;;;;;;;0.10;0.10;;;14.10;99.90;;;;;;4994990;28;20598;-90
2023/04/27 01:09:27;;;;;;;0.20;0.20;;;14.10;99.90;;;;;;4994463;28;20031;-91
2023/04/27 01:11:53;;;;;;;0.10;0.10;;;13.90;99.90;;;;;;4994188;28;20033;-90
2023/04/27 01:14:18;;;;;;;0.10;0.10;;;14.10;99.90;;;;;;4994687;28;20030;-90
2023/04/27 01:16:45;;;;;;;0.20;0.20;;;14.20;99.90;;;;;;4994969;28;20402;-90
2023/04/27 01:19:11;;;;;;;0.10;0.10;;;14.20;99.90;;;;;;4993993;28;20109;-89
2023/04/27 01:21:36;;;;;;;0.13;0.13;;;14.20;99.90;;;;;;4994988;28;20029;-91
2023/04/27 01:24:06;;;;;;;0.20;0.20;;;14.00;99.90;;;;;;4995268;28;20026;-91
2023/04/27 01:26:32;;;;;;;0.32;0.30;;;13.50;99.90;;;;;;4994882;28;20101;-90
2023/04/27 01:28:57;;;;;;;0.52;0.50;;;13.30;99.90;;;;;;4994063;28;20033;-90
2023/04/27 01:31:23;;;;;;;0.10;0.10;;;13.10;99.90;;;;;;4993976;28;20391;-91
2023/04/27 01:33:48;;;;;;;0.10;0.10;;;13.00;99.90;;;;;;4994023;28;20126;-90
2023/04/27 01:36:14;;;;;;;0.10;0.10;;;13.00;99.90;;;;;;4993970;28;20034;-89
2023/04/27 01:38:40;;;;;;;0.20;0.20;;;13.00;99.90;;;;;;4992813;28;20050;-90
2023/04/27 01:41:07;;;;;;;0.22;0.22;;;13.00;99.90;;;;;;4974443;28;20030;-90
2023/04/27 01:43:34;;;;;;;0.10;0.10;;;13.10;99.90;;;;;;4975259;28;20105;-90
2023/04/27 01:46:10;;;;;;;0.38;0.38;;;13.10;99.90;;;;;;4978141;28;20026;-91
2023/04/27 01:48:37;;;;;;;0.40;0.40;;;13.00;99.90;;;;;;4993529;28;20081;-90
2023/04/27 01:51:03;;;;;;;0.00;0.00;;;12.90;99.90;;;;;;4993683;28;20502;-91
2023/04/27 01:53:29;;;;;;;0.20;0.20;;;12.90;99.90;;;;;;4994706;28;20100;-90
2023/04/27 01:55:55;;;;;;;0.10;0.10;;;12.80;99.90;;;;;;4994661;28;20080;-90
2023/04/27 01:58:21;;;;;;;0.10;0.10;;;12.80;99.90;;;;;;4992690;28;20093;-91
2023/04/27 02:00:46;;;;;;;0.10;0.10;;;12.70;99.90;;;;;;4994653;28;20018;-90
2023/04/27 02:03:12;;;;;;;1.65;0.40;;;12.90;99.90;;;;;;4993222;28;20506;-91
2023/04/27 02:05:38;;;;;;;0.10;0.10;;;12.90;99.90;;;;;;4994492;28;20080;-90
2023/04/27 02:08:04;;;;;;;0.40;0.40;;;13.10;99.90;;;;;;4993224;28;20033;-90
2023/04/27 02:10:29;;;;;;;0.47;0.47;;;13.30;99.90;;;;;;4994378;28;20037;-89
2023/04/27 02:12:56;;;;;;;0.43;0.20;;;13.30;99.90;;;;;;4994489;28;20112;-91
2023/04/27 02:15:22;;;;;;;0.13;0.13;;;13.20;99.90;;;;;;4994500;28;20026;-90
2023/04/27 02:17:48;;;;;;;0.20;0.20;;;13.30;99.90;;;;;;4993070;28;20125;-90
2023/04/27 02:20:14;;;;;;;0.35;0.35;;;13.50;99.90;;;;;;4994098;28;20475;-90
2023/04/27 02:22:43;;;;;;;0.00;0.00;;;13.50;99.90;;;;;;4994098;28;20033;-90
2023/04/27 02:25:10;;;;;;;0.20;0.20;;;13.30;99.90;;;;;;4994155;28;20542;-90
2023/04/27 02:27:37;;;;;;;0.22;0.22;;;13.40;99.90;;;;;;4992744;28;20054;-90
2023/04/27 02:30:06;;;;;;;0.20;0.20;;;13.20;99.90;;;;;;4993012;28;20032;-90
2023/04/27 02:32:32;;;;;;;0.20;0.20;;;13.00;99.90;;;;;;4992888;28;20104;-90
2023/04/27 02:34:58;;;;;;;0.30;0.30;;;12.80;99.90;;;;;;4994581;28;20479;-90
2023/04/27 02:37:24;;;;;;;0.30;0.30;;;12.70;99.90;;;;;;4992869;28;20525;-90
2023/04/27 02:39:50;;;;;;;0.25;0.25;;;12.50;99.90;;;;;;4980887;28;20050;-90
2023/04/27 02:42:16;;;;;;;0.08;0.08;;;12.50;99.90;;;;;;4973065;28;20034;-90
2023/04/27 02:44:42;;;;;;;0.10;0.10;;;12.50;99.90;;;;;;4974546;28;20027;-90
2023/04/27 02:47:08;;;;;;;0.10;0.10;;;12.70;99.90;;;;;;4985917;28;20034;-90
2023/04/27 02:49:34;;;;;;;0.32;0.32;;;13.00;99.90;;;;;;4992983;28;20018;-90
2023/04/27 02:51:59;;;;;;;0.08;0.08;;;13.20;99.90;;;;;;4993817;28;20034;-91
2023/04/27 02:54:25;;;;;;;0.10;0.10;;;13.30;99.90;;;;;;4992719;28;20034;-91
2023/04/27 02:56:51;;;;;;;0.20;0.20;;;13.30;99.90;;;;;;4992161;28;20045;-91
2023/04/27 02:59:16;;;;;;;0.20;0.20;;;13.20;99.90;;;;;;4992434;28;20026;-91
2023/04/27 03:01:42;;;;;;;0.20;0.20;;;13.10;99.90;;;;;;4993516;28;20387;-91
2023/04/27 03:04:08;;;;;;;1.75;0.30;;;13.20;99.90;;;;;;4992726;28;20026;-91
2023/04/27 03:06:33;;;;;;;0.20;0.20;;;13.10;99.90;;;;;;4992806;28;20057;-91
2023/04/27 03:08:59;;;;;;;0.28;0.28;;;13.10;99.90;;;;;;4992631;28;20472;-91
2023/04/27 03:11:25;;;;;;;0.25;0.25;;;13.30;99.90;;;;;;4994712;28;20038;-90
2023/04/27 03:13:50;;;;;;;0.28;0.28;;;13.40;99.90;;;;;;4997910;28;20042;-90
2023/04/27 03:16:16;;;;;;;0.13;0.13;;;13.20;99.90;;;;;;4997496;28;20057;-90
2023/04/27 03:18:41;;;;;;;0.10;0.10;;;13.10;99.90;;;;;;4997447;28;20114;-91
2023/04/27 03:21:11;;;;;;;0.05;0.05;;;13.00;99.90;;;;;;4996326;28;20088;-91
2023/04/27 03:23:37;;;;;;;0.20;0.20;;;13.00;99.90;;;;;;4996239;28;20023;-90
2023/04/27 03:26:08;;;;;;;0.10;0.10;;;13.00;99.90;;;;;;4995891;28;20467;-91
2023/04/27 03:28:33;;;;;;;0.15;0.15;;;13.00;99.90;;;;;;4997156;28;20117;-90
2023/04/27 03:31:00;;;;;;;1.10;0.20;;;13.00;99.90;;;;;;4996088;28;20117;-90
2023/04/27 03:33:28;;;;;;;2.25;0.40;;;12.80;99.90;;;;;;4996285;28;20030;-90
2023/04/27 03:35:56;;;;;;;0.10;0.10;;;12.80;99.90;;;;;;4996227;28;20027;-91
2023/04/27 03:38:24;;;;;;;0.20;0.20;;;12.60;99.90;;;;;;4995810;28;20042;-90
2023/04/27 03:40:50;;;;;;;0.10;0.10;;;12.80;99.90;;;;;;4958058;28;20031;-90
2023/04/27 03:43:15;;;;;;;0.25;0.25;;;12.80;99.90;;;;;;4958479;28;20046;-89
2023/04/27 03:45:41;;;;;;;0.10;0.10;;;13.00;99.90;;;;;;4960432;28;20019;-90
2023/04/27 03:48:07;;;;;;;0.00;0.00;;;13.00;99.90;;;;;;4996812;28;20028;-91
2023/04/27 03:50:33;;;;;;;0.17;0.17;;;12.80;99.90;;;;;;4995962;28;20034;-91
2023/04/27 03:52:58;;;;;;;0.00;0.00;;;12.80;99.90;;;;;;4997328;28;20471;-90
2023/04/27 03:55:24;;;;;;;0.00;0.00;;;12.80;99.90;;;;;;4995570;28;20033;-90
2023/04/27 03:57:50;;;;;;;0.10;0.10;;;12.70;99.90;;;;;;4996707;28;20034;-90
2023/04/27 04:00:17;;;;;;;0.10;0.10;;;12.60;99.90;;;;;;4996631;28;20034;-90
2023/04/27 04:02:43;;;;;;;0.10;0.10;;;12.50;99.90;;;;;;4996090;28;20710;-90
2023/04/27 04:05:09;;;;;;;0.00;0.00;;;12.50;99.90;;;;;;4995124;28;20061;-90
2023/04/27 04:07:34;;;;;;;0.20;0.20;;;12.50;99.90;;;;;;4995939;28;20476;-90
2023/04/27 04:10:00;;;;;;;0.10;0.10;;;12.50;99.90;;;;;;4996785;28;20022;-90
2023/04/27 04:12:26;;;;;;;0.10;0.10;;;12.50;99.90;;;;;;4997611;28;20030;-90
2023/04/27 04:14:52;;;;;;;0.10;0.10;;;12.50;99.90;;;;;;4995631;28;20366;-91
2023/04/27 04:17:17;;;;;;;0.00;0.00;;;12.40;99.90;;;;;;4995653;28;20034;-92
2023/04/27 04:19:43;;;;;;;0.10;0.10;;;12.40;99.90;;;;;;4995616;28;20081;-92
2023/04/27 04:22:09;;;;;;;0.52;0.52;;;12.30;99.90;;;;;;4995283;28;20050;-92
2023/04/27 04:24:35;;;;;;;0.10;0.10;;;12.40;99.90;;;;;;4997140;28;20058;-92
2023/04/27 04:27:01;;;;;;;0.00;0.00;;;12.40;99.90;;;;;;4995304;28;20026;-93
2023/04/27 04:29:27;;;;;;;0.10;0.10;;;12.40;99.90;;;;;;4995687;28;20022;-92
2023/04/27 04:31:54;;;;;;;0.10;0.10;;;12.40;99.90;;;;;;4997326;28;20026;-93
2023/04/27 04:34:21;;;;;;;0.17;0.17;;;12.40;99.90;;;;;;4995536;28;20030;-95
2023/04/27 04:36:50;;;;;;;0.05;0.05;;;12.40;99.90;;;;;;4996528;28;20352;-92
2023/04/27 04:39:18;;;;;;;0.10;0.10;;;12.30;99.90;;;;;;4989151;28;20142;-90
2023/04/27 04:41:44;;;;;;;0.10;0.10;;;12.30;99.90;;;;;;4976369;28;20033;-89
2023/04/27 04:44:09;;;;;;;0.10;0.10;;;12.20;99.90;;;;;;4976883;28;20117;-92
2023/04/27 04:46:36;;;;;;;0.30;0.30;;;12.40;99.90;;;;;;4984399;28;20030;-91
2023/04/27 04:49:01;;;;;;;0.10;0.10;;;12.40;99.90;;;;;;4994846;28;20030;-91
2023/04/27 04:51:27;;;;;;;0.10;0.10;;;12.40;99.90;;;;;;4996139;28;20026;-91
2023/04/27 04:53:53;;;;;;;0.10;0.10;;;12.40;99.90;;;;;;4994543;28;20030;-92
2023/04/27 04:56:18;;;;;;;0.28;0.28;;;12.50;99.90;;;;;;4996024;28;20034;-92
2023/04/27 04:58:44;;;;;;;0.00;0.00;;;12.50;99.90;;;;;;4995330;28;20034;-92
2023/04/27 05:01:10;;;;;;;0.00;0.00;;;12.50;99.90;;;;;;4995340;28;20069;-91
2023/04/27 05:03:36;;;;;;;0.00;0.00;;;12.30;99.90;;;;;;4995876;28;20506;-92
2023/04/27 05:06:01;;;;;;;0.10;0.10;;;12.30;99.90;;;;;;4994497;28;20109;-92
2023/04/27 05:08:27;;;;;;;0.00;0.00;;;12.20;99.90;;;;;;4995721;28;20036;-90
2023/04/27 05:10:53;;;;;;;0.10;0.10;;;12.10;99.90;;;;;;4994757;28;20213;-92
2023/04/27 05:13:20;;;;;;;0.10;0.10;;;12.10;99.90;;;;;;4995731;28;20030;-92
2023/04/27 05:15:45;;;;;;;0.17;0.17;;;12.20;99.90;;;;;;4994597;28;20053;-91
2023/04/27 05:18:11;;;;;;;0.10;0.10;;;12.20;99.90;;;;;;4994844;28;20026;-91
2023/04/27 05:20:37;;;;;;;0.10;0.10;;;12.20;99.90;;;;;;4994255;28;20133;-91
2023/04/27 05:23:04;;;;;;;0.10;0.10;;;12.30;99.90;;;;;;4993910;28;20054;-91
2023/04/27 05:25:32;;;;;;;0.22;0.22;;;12.30;99.90;;;;;;4995232;28;20050;-92
2023/04/27 05:27:58;;;;;;;0.10;0.10;;;12.40;99.90;;;;;;4994330;28;20502;-92
2023/04/27 05:30:23;;;;;;;0.10;0.10;;;12.50;99.90;;;;;;4995274;28;20031;-91
2023/04/27 05:32:49;;;;;;;0.10;0.10;;;12.60;99.90;;;;;;4994261;28;20491;-92
2023/04/27 05:35:15;;;;;;;0.10;0.10;;;12.50;99.90;;;;;;4993994;28;20100;-92
2023/04/27 05:37:41;;;;;;;0.10;0.10;;;12.50;99.90;;;;;;4993580;28;20045;-91
2023/04/27 05:40:08;;;;;;;0.10;0.10;;;12.40;99.90;;;;;;4980133;28;20182;-93
2023/04/27 05:42:34;;;;;;;0.28;0.28;;;12.50;99.90;;;;;;4975378;28;20031;-92
2023/04/27 05:45:01;;;;;;;0.10;0.10;;;12.60;99.90;;;;;;4975795;28;20023;-92
2023/04/27 05:47:26;;;;;;;0.10;0.10;;;12.40;99.90;;;;;;4989939;28;20104;-92
2023/04/27 05:49:52;;;;;;;0.22;0.20;;;12.50;99.90;;;;;;4993913;28;20471;-91
2023/04/27 05:52:19;;;;;;;0.22;0.15;;;12.60;99.90;;;;;;4993636;28;20053;-92
2023/04/27 05:54:49;;;;;;;0.05;0.05;;;12.70;99.90;;;;;;4994910;28;20037;-92
2023/04/27 05:57:15;;;;;;;0.10;0.10;;;12.80;99.90;;;;;;4994711;28;20104;-91
2023/04/27 05:59:41;;;;;;;0.10;0.10;;;12.80;99.90;;;;;;4994721;28;20036;-93
2023/04/27 06:02:07;;;;;;;0.03;0.03;;;12.80;99.90;;;;;;4993393;28;20479;-92
2023/04/27 06:04:34;;;;;;;0.10;0.10;;;12.80;99.90;;;;;;4994820;28;20022;-92
2023/04/27 06:07:00;;;;;;;0.10;0.10;;;12.90;99.90;;;;;;4994291;28;20033;-91
2023/04/27 06:09:25;;;;;;;0.17;0.17;;;13.00;99.90;;;;;;4993599;28;20038;-91
2023/04/27 06:11:51;;;;;;;0.10;0.10;;;13.10;99.90;;;;;;4994813;28;20022;-92
2023/04/27 06:14:16;;;;;;;0.10;0.10;;;13.20;99.90;;;;;;4993326;28;20049;-91
2023/04/27 06:16:42;;;;;;;0.20;0.13;;;13.20;99.90;;;;;;4994320;28;20041;-92
2023/04/27 06:19:08;;;;;;;0.20;0.20;;;13.10;99.90;;;;;;4993224;28;20033;-92
2023/04/27 06:21:34;;;;;;;0.10;0.10;;;13.10;99.90;;;;;;4994266;28;20035;-92
2023/04/27 06:24:01;;;;;;;0.40;0.40;;;13.10;99.90;;;;;;4993466;28;20406;-85
2023/04/27 06:26:27;;;;;;;0.10;0.10;;;13.00;99.90;;;;;;4992427;28;20034;-89
2023/04/27 06:28:53;;;;;;;0.30;0.30;;;13.20;99.90;;;;;;4992357;28;20035;-86
2023/04/27 06:31:20;;;;;;;1.25;0.68;;;13.30;99.90;;;;;;4994156;28;20026;-87
2023/04/27 06:33:45;;;;;;;0.28;0.28;;;13.10;99.90;;;;;;4995205;28;20030;-86
2023/04/27 06:36:11;;;;;;;0.20;0.20;;;13.50;99.90;;;;;;4993234;28;20367;-87
2023/04/27 06:38:37;;;;;;;0.50;0.50;;;13.50;99.90;;;;;;4991173;28;20093;-84
2023/04/27 06:41:03;;;;;;;0.20;0.20;;;13.50;99.90;;;;;;4973564;28;20467;-84
2023/04/27 06:43:29;;;;;;;0.20;0.20;;;13.60;99.90;;;;;;4973928;28;20030;-84
2023/04/27 06:45:54;;;;;;;0.10;0.10;;;13.80;99.90;;;;;;4976657;28;20049;-84
2023/04/27 06:48:20;;;;;;;0.82;0.82;;;14.00;99.90;;;;;;4992490;28;20053;-84
2023/04/27 06:50:46;;;;;;;0.20;0.20;;;14.10;99.90;;;;;;4993026;28;20089;-84
2023/04/27 06:53:12;;;;;;;0.10;0.10;;;14.10;99.90;;;;;;4993094;28;20041;-83
2023/04/27 06:55:38;;;;;;;0.32;0.32;;;14.20;99.90;;;;;;4992780;28;20026;-84
2023/04/27 06:58:04;;;;;;;1.30;0.85;;;14.20;99.90;;;;;;4992829;28;20034;-84
2023/04/27 07:00:30;;;;;;;0.90;0.70;;;14.10;99.90;;;;;;4992861;28;20030;-84
2023/04/27 07:02:56;;;;;;;0.20;0.20;;;14.20;99.90;;;;;;4992779;28;20114;-84
2023/04/27 07:05:21;;;;;;;0.28;0.28;;;14.20;99.90;;;;;;4992805;28;20113;-83
2023/04/27 07:07:47;;;;;;;0.63;0.50;;;14.40;99.90;;;;;;4992684;28;20482;-83
2023/04/27 07:10:13;;;;;;;0.10;0.10;;;14.40;99.90;;;;;;4992815;28;20031;-84
2023/04/27 07:12:39;;;;;;;0.08;0.08;;;14.60;99.90;;;;;;4993042;28;20041;-84
2023/04/27 07:15:06;;;;;;;0.10;0.10;;;14.70;99.90;;;;;;4992539;28;20026;-84
2023/04/27 07:17:32;;;;;;;0.20;0.20;;;14.80;99.90;;;;;;4992188;28;20038;-84
2023/04/27 07:19:58;;;;;;;0.20;0.20;;;14.70;99.90;;;;;;4992630;28;20054;-84
2023/04/27 07:22:23;;;;;;;0.30;0.30;;;14.70;99.90;;;;;;4993242;28;20041;-83
2023/04/27 07:24:49;;;;;;;0.20;0.20;;;14.90;99.90;;;;;;4992602;28;20027;-84
2023/04/27 07:27:15;;;;;;;0.10;0.10;;;14.80;99.90;;;;;;4992518;28;20039;-84
2023/04/27 07:29:41;;;;;;;0.50;0.50;;;15.00;99.90;;;;;;4992519;28;20025;-84
2023/04/27 07:32:07;;;;;;;0.30;0.30;;;15.00;99.90;;;;;;4991941;28;20490;-83
2023/04/27 07:34:33;;;;;;;0.20;0.20;;;14.90;99.90;;;;;;4992782;28;20026;-84
2023/04/27 07:37:00;;;;;;;0.00;0.00;;;15.10;99.90;;;;;;4992177;28;20038;-84
2023/04/27 07:39:26;;;;;;;0.82;0.80;;;15.20;99.90;;;;;;4984285;28;20053;-84
2023/04/27 07:41:52;;;;;;;0.28;0.28;;;15.30;99.90;;;;;;4972913;28;20034;-84
2023/04/27 07:44:18;;;;;;;0.45;0.30;;;15.30;99.90;;;;;;4973030;28;20387;-83
2023/04/27 07:46:46;;;;;;;0.30;0.30;;;15.40;99.90;;;;;;4982186;28;20029;-84
2023/04/27 07:49:12;;;;;;;0.10;0.10;;;15.50;99.90;;;;;;4992346;28;20025;-84
2023/04/27 07:51:38;;;;;;;0.10;0.10;;;15.60;99.90;;;;;;4992136;28;20395;-84
2023/04/27 07:54:05;;;;;;;0.10;0.10;;;15.80;99.90;;;;;;4993140;28;20053;-84
2023/04/27 07:56:31;;;;;;;0.00;0.00;;;15.90;99.90;;;;;;4992244;28;20026;-84
2023/04/27 07:58:57;;;;;;;0.10;0.10;;;16.00;99.90;;;;;;4996050;28;20105;-84
2023/04/27 08:01:23;;;;;;;0.15;0.15;;;16.00;99.90;;;;;;4995533;28;20054;-84
2023/04/27 08:03:49;;;;;;;0.10;0.10;;;16.00;99.90;;;;;;4996008;28;20030;-83
2023/04/27 08:06:15;;;;;;;0.10;0.10;;;16.00;99.90;;;;;;4995916;28;20026;-84
2023/04/27 08:08:40;;;;;;;0.10;0.10;;;16.10;99.90;;;;;;4995754;28;20101;-82
2023/04/27 08:11:10;;;;;;;0.08;0.08;;;16.20;99.90;;;;;;4995570;28;20158;-81
2023/04/27 08:13:36;;;;;;;0.10;0.10;;;16.20;99.90;;;;;;4995736;28;20109;-81
2023/04/27 08:16:01;;;;;;;0.10;0.10;;;16.20;99.90;;;;;;4993774;28;20502;-81
2023/04/27 08:18:27;;;;;;;0.10;0.10;;;16.30;99.90;;;;;;4995539;28;20114;-82
2023/04/27 08:20:53;;;;;;;0.45;0.30;;;16.40;99.90;;;;;;4995633;28;20097;-82
2023/04/27 08:23:19;;;;;;;0.30;0.15;;;16.50;99.90;;;;;;4995527;28;20113;-81
2023/04/27 08:25:45;;;;;;;0.22;0.22;;;16.60;99.90;;;;;;4995320;28;20117;-82
2023/04/27 08:28:11;;;;;;;0.20;0.20;;;16.60;99.90;;;;;;4995821;28;20026;-81
2023/04/27 08:30:37;;;;;;;0.20;0.15;;;16.60;99.90;;;;;;4994859;28;20101;-81
2023/04/27 08:33:02;;;;;;;0.00;0.00;;;16.60;99.90;;;;;;4995361;28;20106;-81
2023/04/27 08:35:28;;;;;;;0.00;0.00;;;16.70;99.90;;;;;;4995347;28;20027;-81
2023/04/27 08:37:54;;;;;;;0.00;0.00;;;16.70;99.90;;;;;;4995566;28;20113;-81
2023/04/27 08:40:19;;;;;;;0.98;0.20;;;16.70;99.90;;;;;;4979436;28;20043;-81
2023/04/27 08:42:59;;;;;;;0.10;0.10;;;16.90;99.90;;;;;;4975838;28;20022;-81
2023/04/27 08:45:26;;;;;;;0.00;0.00;;;16.90;99.90;;;;;;4975238;28;20365;-81
2023/04/27 08:47:52;;;;;;;0.00;0.00;;;16.90;99.90;;;;;;4994929;28;20113;-82
2023/04/27 08:50:18;;;;;;;0.30;0.30;;;16.90;99.90;;;;;;4994906;28;20478;-82
2023/04/27 08:52:47;;;;;;;0.10;0.10;;;16.90;99.90;;;;;;4995016;28;20018;-81
2023/04/27 08:55:13;;;;;;;0.00;0.00;;;17.10;99.90;;;;;;4995012;28;20033;-81
2023/04/27 08:57:39;;;;;;;0.10;0.10;;;17.20;99.90;;;;;;4993280;28;20498;-81
2023/04/27 09:00:12;;;;;;;0.00;0.00;;;17.30;99.90;;;;;;4994492;28;20026;-81
2023/04/27 09:02:47;;;;;;;0.10;0.10;;;17.60;99.90;;;;;;4995203;28;20050;-82
2023/04/27 09:05:17;;;;;;;0.08;0.08;;;17.70;99.90;;;;;;4994767;28;20106;-83
2023/04/27 09:07:55;;;;;;;0.00;0.00;;;17.90;99.90;;;;;;4994540;28;20022;-82
2023/04/27 09:10:22;;;;;;;0.10;0.10;;;17.90;99.90;;;;;;4994002;28;20023;-82
2023/04/27 09:12:58;;;;;;;0.15;0.15;;;18.10;99.90;;;;;;4994761;28;20030;-82
2023/04/27 09:15:24;;;;;;;0.20;0.20;;;18.10;99.90;;;;;;4994237;28;20035;-82
2023/04/27 09:17:57;;;;;;;0.10;0.10;;;18.30;99.90;;;;;;4994391;28;20038;-83
2023/04/27 09:20:25;;;;;;;0.15;0.10;;;18.30;99.90;;;;;;4994715;28;20030;-83
2023/04/27 09:22:54;;;;;;;0.22;0.22;;;18.40;99.90;;;;;;4994436;28;20022;-82
2023/04/27 09:25:30;;;;;;;0.30;0.30;;;18.50;99.90;;;;;;4994333;28;20029;-82
2023/04/27 09:27:57;;;;;;;0.03;0.03;;;18.30;99.90;;;;;;4994056;28;20032;-82
2023/04/27 09:30:24;;;;;;;0.38;0.38;;;18.60;99.90;;;;;;4994407;28;20015;-82
2023/04/27 09:32:51;;;;;;;0.15;0.15;;;18.80;99.90;;;;;;4994703;28;20097;-83
2023/04/27 09:35:22;;;;;;;0.00;0.00;;;19.00;99.90;;;;;;4994224;28;20023;-82
2023/04/27 09:37:51;;;;;;;0.47;0.40;;;19.60;99.90;;;;;;4993966;28;20045;-82
2023/04/27 09:40:25;;;;;;;0.30;0.20;;;19.80;99.90;;;;;;4978786;28;20337;-82
2023/04/27 09:42:51;;;;;;;0.00;0.00;;;20.10;99.90;;;;;;4974634;28;20536;-82
2023/04/27 09:45:18;;;;;;;0.08;0.08;;;20.10;99.90;;;;;;4974565;28;20023;-81
2023/04/27 09:47:44;;;;;;;0.10;0.10;;;20.50;99.90;;;;;;4990893;28;20487;-82
2023/04/27 09:50:12;;;;;;;0.00;0.00;;;20.50;99.90;;;;;;4993886;28;20027;-83
2023/04/27 09:52:37;;;;;;;1.48;0.10;;;20.50;99.90;;;;;;4994132;28;20068;-83
2023/04/27 09:55:05;;;;;;;0.00;0.00;;;20.80;99.90;;;;;;4993628;28;20487;-82
2023/04/27 09:58:00;;;;;;;0.68;0.30;;;21.00;99.90;;;;;;4993355;28;20092;-83
2023/04/27 10:00:40;;;;;;;0.10;0.10;;;20.90;99.90;;;;;;4914971;29;20044;-82
2023/04/27 10:03:21;;;;;;;1.30;0.52;;;20.90;99.90;;;;;;4914547;29;20138;-83
2023/04/27 10:06:23;;;;;;;0.03;0.03;;;21.00;99.90;;;;;;4914833;29;20036;-82
2023/04/27 10:08:50;;;;;;;0.20;0.20;;;21.00;99.90;;;;;;4915047;29;20043;-82
2023/04/27 10:11:19;;;;;;;0.03;0.03;;;20.70;99.90;;;;;;4913914;29;20505;-83
2023/04/27 10:13:53;;;;;;;0.10;0.10;;;20.90;99.90;;;;;;4914400;29;20032;-83
2023/04/27 10:16:20;;;;;;;0.63;0.13;;;20.90;99.90;;;;;;4914360;29;20028;-82
2023/04/27 10:18:54;;;;;;;0.10;0.10;;;20.90;99.90;;;;;;4914329;29;20052;-82
2023/04/27 10:21:20;;;;;;;0.05;0.05;;;20.90;99.90;;;;;;4898839;29;20028;-82
2023/04/27 10:23:49;;;;;;;0.00;0.00;;;21.10;99.90;;;;;;4914207;29;20056;-82
2023/04/27 10:26:22;;;;;;;0.00;0.00;;;21.20;99.90;;;;;;4914080;29;20051;-82
2023/04/27 10:29:07;;;;;;;0.15;0.15;;;21.50;99.90;;;;;;4914203;29;20048;-82
2023/04/27 10:31:33;;;;;;;0.10;0.10;;;21.40;99.90;;;;;;4914336;29;20032;-82
2023/04/27 10:34:06;;;;;;;0.20;0.20;;;21.50;99.90;;;;;;4914248;29;20024;-82
2023/04/27 10:36:39;;;;;;;0.00;0.00;;;21.70;99.90;;;;;;4924155;28;20043;-82
2023/04/27 10:39:21;;;;;;;0.00;0.00;;;21.70;99.90;;;;;;4987371;28;20051;-82
2023/04/27 10:41:55;;;;;;;0.10;0.10;;;22.00;99.90;;;;;;4972197;28;20030;-82
2023/04/27 10:44:23;;;;;;;0.00;0.00;;;22.30;99.90;;;;;;4973577;28;20023;-82
2023/04/27 10:46:51;;;;;;;0.08;0.08;;;22.20;99.90;;;;;;4984245;28;20147;-83
2023/04/27 10:49:16;;;;;;;0.00;0.00;;;22.00;99.90;;;;;;4993619;28;20601;-82
2023/04/27 10:51:42;;;;;;;0.00;0.00;;;21.90;99.90;;;;;;4992804;28;20153;-83
2023/04/27 10:54:08;;;;;;;0.25;0.25;;;22.00;99.90;;;;;;4993074;28;20027;-83
2023/04/27 10:56:34;;;;;;;0.00;0.00;;;22.00;99.90;;;;;;4992426;28;20026;-83
2023/04/27 10:59:03;;;;;;;0.32;0.32;;;22.00;99.90;;;;;;4992909;28;20026;-83
2023/04/27 11:01:29;;;;;;;0.00;0.00;;;22.10;99.90;;;;;;4992821;28;20074;-82
2023/04/27 11:03:56;;;;;;;2.05;0.95;;;22.20;99.90;;;;;;4993149;28;20447;-82
2023/04/27 11:06:22;;;;;;;0.10;0.10;;;22.40;99.90;;;;;;4992770;28;20023;-82
2023/04/27 11:08:47;;;;;;;0.00;0.00;;;22.70;99.90;;;;;;4992839;28;20080;-82
2023/04/27 11:11:15;;;;;;;0.20;0.20;;;22.80;99.90;;;;;;4992385;28;20026;-82
2023/04/27 11:13:42;;;;;;;0.10;0.10;;;22.80;99.90;;;;;;4993102;28;20025;-82
2023/04/27 11:16:08;;;;;;;0.00;0.00;;;22.90;99.90;;;;;;4992716;28;20112;-82
2023/04/27 11:18:37;;;;;;;0.10;0.10;;;23.20;99.90;;;;;;4992501;28;20479;-82
2023/04/27 11:21:13;;;;;;;0.20;0.20;;;23.60;99.90;;;;;;4992579;28;20030;-82
2023/04/27 11:23:41;;;;;;;0.00;0.00;;;23.80;99.90;;;;;;4992431;28;20030;-82
2023/04/27 11:26:17;;;;;;;0.10;0.10;;;23.70;99.90;;;;;;4992622;28;20030;-82
2023/04/27 11:28:45;;;;;;;0.00;0.00;;;23.90;99.90;;;;;;4992523;28;20031;-83
2023/04/27 11:31:11;;;;;;;1.92;0.30;;;23.80;99.90;;;;;;4992482;28;20022;-82
2023/04/27 11:33:38;;;;;;;0.00;0.00;;;24.00;99.90;;;;;;4995994;28;20045;-82
2023/04/27 11:36:15;;;;;;;0.15;0.15;;;24.00;99.90;;;;;;4996383;28;20038;-82
2023/04/27 11:38:41;;;;;;;0.00;0.00;;;24.20;99.90;;;;;;4993491;28;20077;-83
2023/04/27 11:41:07;;;;;;;0.10;0.10;;;24.50;99.90;;;;;;4976788;28;20579;-83
2023/04/27 11:43:33;;;;;;;0.25;0.22;;;24.60;99.90;;;;;;4976858;28;20114;-82
2023/04/27 11:46:09;;;;;;;0.08;0.05;;;25.10;99.90;;;;;;4980439;28;20073;-83
2023/04/27 11:48:36;;;;;;;0.00;0.00;;;25.40;99.90;;;;;;4996675;28;20512;-83
2023/04/27 11:51:02;;;;;;;0.00;0.00;;;25.90;99.90;;;;;;4996213;28;20029;-83
2023/04/27 11:53:33;;;;;;;0.13;0.13;;;26.00;99.90;;;;;;4995644;28;20034;-83
2023/04/27 11:56:01;;;;;;;0.13;0.13;;;25.70;99.90;;;;;;4996081;28;20027;-83
2023/04/27 11:58:28;;;;;;;0.43;0.38;;;25.90;99.90;;;;;;4995934;28;20058;-82
2023/04/27 12:00:56;;;;;;;0.30;0.30;;;25.90;99.90;;;;;;4996355;28;20395;-82
2023/04/27 12:03:22;;;;;;;0.10;0.10;;;26.50;99.90;;;;;;4995889;28;20113;-83
2023/04/27 12:05:49;;;;;;;0.20;0.20;;;27.10;99.90;;;;;;4995691;28;20098;-82
2023/04/27 12:08:16;;;;;;;0.47;0.20;;;27.70;99.90;;;;;;4995864;28;20486;-82
2023/04/27 12:10:41;;;;;;;0.40;0.35;;;28.10;99.90;;;;;;4995723;28;20026;-82
2023/04/27 12:13:07;;;;;;;0.00;0.00;;;27.50;99.90;;;;;;4995955;28;20386;-82
2023/04/27 12:15:33;;;;;;;0.43;0.25;;;27.30;99.90;;;;;;4995741;28;20092;-83
2023/04/27 12:17:58;;;;;;;0.00;0.00;;;27.40;99.90;;;;;;4995564;28;20046;-82
2023/04/27 12:20:24;;;;;;;0.20;0.20;;;27.80;99.90;;;;;;4995692;28;20027;-82
2023/04/27 12:22:50;;;;;;;0.28;0.28;;;27.20;99.90;;;;;;4995281;28;20118;-82
2023/04/27 12:25:16;;;;;;;0.00;0.00;;;26.90;99.90;;;;;;4995986;28;20105;-83
2023/04/27 12:27:46;;;;;;;0.15;0.10;;;26.70;99.90;;;;;;4995549;28;20394;-82
2023/04/27 12:30:12;;;;;;;0.10;0.10;;;27.20;99.90;;;;;;4995303;28;20475;-83
2023/04/27 12:32:38;;;;;;;0.00;0.00;;;26.80;99.90;;;;;;4995464;28;20040;-83
2023/04/27 12:35:05;;;;;;;0.00;0.00;;;26.80;99.90;;;;;;4995375;28;20483;-83
2023/04/27 12:37:30;;;;;;;0.00;0.00;;;26.60;99.90;;;;;;4995228;28;20070;-82
2023/04/27 12:39:56;;;;;;;0.10;0.10;;;27.00;99.90;;;;;;4982695;28;20082;-82
2023/04/27 12:42:23;;;;;;;0.00;0.00;;;27.20;99.90;;;;;;4975711;28;20027;-83
2023/04/27 12:44:50;;;;;;;0.00;0.00;;;27.60;99.90;;;;;;4975689;28;20092;-82
2023/04/27 12:47:16;;;;;;;0.13;0.13;;;27.00;99.90;;;;;;4989458;28;20100;-82